• Join FlightAware (Why Join?)
  • Login
  • US Flag 
08:05PM EDT


 

Airport Tracker/Info


-or-


 

Live Flight TrackerFlight Track Log ✈ TYR919 ✈ 11-Apr-2013 ✈ LOWW / VIE - LOWS / SZG

Flight Track Log - Related Links

Times and Time Zones

All times are in EDT time to prevent confusion due to time zone crossing. See the TYR919 flight status page for this flight to view local times or setup timezone preferences in your user account.

Time Position Orientation Groundspeed Altitude Reporting Facility
EDT Latitude Longitude Course Direction KTS MPH feet Rate Location/Type
04:04PM 48.0844 16.2220 264° West  Level Estimated
04:05PM 48.0755 16.1062 264° West  Level Estimated
04:06PM 48.0665 15.9904 263° West  Level Estimated
04:07PM 48.0574 15.8747 263° West  Level Estimated
04:08PM 48.0482 15.7590 263° West  Level Estimated
04:09PM 48.0389 15.6433 263° West  Level Estimated
04:10PM 48.0294 15.5277 263° West  Level Estimated
04:11PM 48.0199 15.4122 263° West  Level Estimated
04:12PM 48.0102 15.2966 263° West  Level Estimated
04:13PM 48.0004 15.1811 263° West  Level Estimated
04:14PM 47.9905 15.0657 263° West  Level Estimated
04:15PM 47.9805 14.9503 263° West  Level Estimated
04:16PM 47.9703 14.8350 263° West  Level Estimated
04:17PM 47.9601 14.7196 262° West  Level Estimated
04:18PM 47.9497 14.6044 262° West  Level Estimated
04:19PM 47.9392 14.4892 262° West  Level Estimated
04:20PM 47.9286 14.3740 262° West  Level Estimated
04:21PM 47.9179 14.2589 262° West  Level Estimated
04:22PM 47.9071 14.1438 262° West  Level Estimated
04:23PM 47.8961 14.0288 262° West  Level Estimated
04:24PM 47.8850 13.9138 262° West  Level Estimated
04:25PM 47.8739 13.7989 262° West  Level Estimated
04:26PM 47.8626 13.6840 262° West  Level Estimated
04:27PM 47.8512 13.5692 262° West  Level Estimated
04:28PM 47.8396 13.4544 262° West  Level Estimated
04:29PM 47.8280 13.3397 261° West  Level Estimated
04:30PM 47.8162 13.2250 261° West  Level Estimated
04:31PM 47.8044 13.1104 261° West  Level Estimated
04:32PM 47.7933 13.0043 261° West  Level Estimated
04:33PM 47.7933 13.0043 27° Northeast  Level Estimated
04:34PM 47.7933 13.0043 27° Northeast  Level Estimated
04:35PM 47.7933 13.0043 27° Northeast  Level Estimated
04:36PM 47.7933 13.0043 27° Northeast  Level Estimated
04:37PM 47.7933 13.0043 27° Northeast  Level Estimated
04:38PM 47.7933 13.0043 27° Northeast  Level Estimated
04:39PM 47.7933 13.0043 27° Northeast  Level Estimated